Time;durP1;ratioP1;P1;durP2;ratioP2;P2;SDS_P1;SDS_P2;PMS_P1;PMS_P2;Temp;Humidity;BMP_temperature;BMP_pressure;BME280_temperature;BME280_humidity;BME280_pressure;Samples;Min_cycle;Max_cycle;Signal;HPM_P1;HPM_P2
2022/11/10 00:01:57;;;;;;;6.68;3.42;;;;;;;9.44;nan;100895.81;5091195;28;20060;-87
2022/11/10 00:04:22;;;;;;;4.88;3.35;;;;;;;9.45;nan;100894.00;5099114;28;20063;-87
2022/11/10 00:06:48;;;;;;;6.75;3.47;;;;;;;9.44;nan;100884.41;5093598;28;20039;-87
2022/11/10 00:09:14;;;;;;;8.00;3.83;;;;;;;9.43;nan;100901.22;5101456;28;20035;-87
2022/11/10 00:11:40;;;;;;;7.25;3.90;;;;;;;9.40;nan;100897.06;5103363;28;20492;-87
2022/11/10 00:17:00;;;;;;;5.68;3.60;;;;;;;9.34;nan;100897.59;5105821;28;20041;-87
2022/11/10 00:19:30;;;;;;;9.45;4.43;;;;;;;9.32;nan;100894.28;5074264;28;20134;-87
2022/11/10 00:21:56;;;;;;;6.88;4.00;;;;;;;9.30;nan;100894.41;5091082;28;20493;-87
2022/11/10 00:24:22;;;;;;;5.97;3.60;;;;;;;9.25;nan;100895.78;5072343;28;20071;-87
2022/11/10 00:26:47;;;;;;;5.43;3.38;;;;;;;9.20;nan;100896.19;5104791;28;20035;-87
2022/11/10 00:29:13;;;;;;;4.57;2.97;;;;;;;9.14;nan;100899.34;5089562;28;20113;-87
2022/11/10 00:31:39;;;;;;;6.40;3.05;;;;;;;9.10;nan;100903.19;5092729;28;20036;-88
2022/11/10 00:34:05;;;;;;;6.10;3.25;;;;;;;9.07;nan;100900.84;5092223;28;20077;-87
2022/11/10 00:36:31;;;;;;;5.10;2.75;;;;;;;9.04;nan;100906.38;5111482;28;20034;-87
2022/11/10 00:38:56;;;;;;;4.35;3.25;;;;;;;8.97;nan;100899.97;5096353;28;20036;-87
2022/11/10 00:41:21;;;;;;;4.93;2.75;;;;;;;8.91;nan;100903.94;5109851;28;20034;-87
2022/11/10 00:43:47;;;;;;;4.95;2.70;;;;;;;8.84;nan;100913.34;5083291;28;20118;-87
2022/11/10 00:46:13;;;;;;;4.18;2.70;;;;;;;8.78;nan;100922.63;5066916;28;20060;-87
2022/11/10 00:48:38;;;;;;;5.30;3.13;;;;;;;8.70;nan;100917.19;5085299;28;20082;-87
2022/11/10 00:51:04;;;;;;;4.72;2.70;;;;;;;8.64;nan;100923.78;5073984;28;20032;-87
2022/11/10 00:53:30;;;;;;;3.60;2.60;;;;;;;8.60;nan;100926.81;5092363;28;20047;-87
2022/11/10 00:55:55;;;;;;;4.28;2.35;;;;;;;8.58;nan;100934.00;5100606;28;20495;-87
2022/11/10 00:58:21;;;;;;;4.00;2.80;;;;;;;8.56;nan;100936.81;5091941;28;20098;-87
2022/11/10 01:00:46;;;;;;;3.88;2.92;;;;;;;8.54;nan;100938.72;5083819;28;20178;-87
2022/11/10 01:03:16;;;;;;;4.80;2.47;;;;;;;8.52;nan;100951.19;5091852;28;20392;-87
2022/11/10 01:05:42;;;;;;;5.15;2.45;;;;;;;8.48;nan;100949.75;5081471;28;20504;-87
2022/11/10 01:08:07;;;;;;;6.03;2.30;;;;;;;8.41;nan;100957.34;5085588;28;20043;-87
2022/11/10 01:10:33;;;;;;;5.28;2.42;;;;;;;8.40;nan;100957.47;5086045;28;20028;-87
2022/11/10 01:12:58;;;;;;;3.72;2.25;;;;;;;8.40;nan;100962.75;5097945;28;20039;-87
2022/11/10 01:15:24;;;;;;;4.32;2.80;;;;;;;8.39;nan;100968.94;5097539;28;20034;-87
2022/11/10 01:17:50;;;;;;;3.83;2.60;;;;;;;8.35;nan;100971.00;5092300;28;20028;-87
2022/11/10 01:20:15;;;;;;;4.90;2.47;;;;;;;8.33;nan;100974.72;5093314;28;20150;-87
2022/11/10 01:22:41;;;;;;;4.03;3.03;;;;;;;8.25;nan;100983.28;5100862;28;20056;-87
2022/11/10 01:25:07;;;;;;;5.18;2.45;;;;;;;8.17;nan;100983.03;5087111;28;20478;-87
2022/11/10 01:27:33;;;;;;;3.95;2.67;;;;;;;8.13;nan;100992.16;5072065;28;20039;-87
2022/11/10 01:29:58;;;;;;;6.47;2.95;;;;;;;8.06;nan;100994.47;5098692;28;20481;-87
2022/11/10 01:32:24;;;;;;;4.18;2.80;;;;;;;8.04;nan;101001.66;5088489;28;20032;-87
2022/11/10 01:34:49;;;;;;;3.90;2.63;;;;;;;8.01;nan;100999.28;5096864;28;20108;-87
2022/11/10 01:37:15;;;;;;;4.65;3.00;;;;;;;7.96;nan;101007.53;5100437;28;20028;-87
2022/11/10 01:39:40;;;;;;;4.82;2.60;;;;;;;7.92;nan;101010.53;5103002;28;20115;-87
2022/11/10 01:42:05;;;;;;;6.55;3.72;;;;;;;7.98;nan;101010.84;5079769;28;20551;-88
2022/11/10 01:44:31;;;;;;;5.85;3.20;;;;;;;8.01;nan;101009.81;5077152;28;20523;-87
2022/11/10 01:46:56;;;;;;;7.05;3.42;;;;;;;7.99;nan;101014.34;5076458;28;20039;-87
2022/11/10 01:49:25;;;;;;;3.92;2.45;;;;;;;7.98;nan;101015.28;5077536;28;20040;-87
2022/11/10 01:52:10;;;;;;;5.07;3.05;;;;;;;7.99;nan;101017.00;5090541;28;20036;-87
2022/11/10 01:54:43;;;;;;;6.78;3.13;;;;;;;8.02;nan;101019.38;5080260;28;20028;-87
2022/11/10 01:57:11;;;;;;;4.85;3.00;;;;;;;8.00;nan;101030.00;5098003;28;20036;-87
2022/11/10 01:59:45;;;;;;;6.22;3.10;;;;;;;7.96;nan;101033.00;5075650;28;20089;-87
2022/11/10 02:02:27;;;;;;;5.93;3.30;;;;;;;7.91;nan;101029.91;5083322;28;20032;-87
2022/11/10 02:04:52;;;;;;;6.47;3.15;;;;;;;7.92;nan;101026.34;5079551;28;20054;-87
2022/11/10 02:07:20;;;;;;;5.63;3.15;;;;;;;7.92;nan;101024.53;5077192;28;20040;-87
2022/11/10 02:09:45;;;;;;;6.05;2.75;;;;;;;7.94;nan;101037.59;5092526;28;20529;-87
2022/11/10 02:12:11;;;;;;;3.95;2.53;;;;;;;7.93;nan;101033.25;5110101;28;20027;-87
2022/11/10 02:14:37;;;;;;;3.85;2.45;;;;;;;7.95;nan;101037.44;5095292;28;20032;-87
2022/11/10 02:17:02;;;;;;;3.35;2.10;;;;;;;7.92;nan;101040.34;5095950;28;20027;-87
2022/11/10 02:19:27;;;;;;;4.57;2.40;;;;;;;7.88;nan;101039.72;5080469;28;20036;-87
2022/11/10 02:21:53;;;;;;;4.18;2.38;;;;;;;7.84;nan;101043.59;5098674;28;20032;-87
2022/11/10 02:24:18;;;;;;;3.50;2.42;;;;;;;7.85;nan;101042.59;5076339;28;20040;-87
2022/11/10 02:26:53;;;;;;;3.90;2.80;;;;;;;7.83;nan;101043.69;5090797;28;20032;-87
2022/11/10 02:29:19;;;;;;;5.80;2.80;;;;;;;7.78;nan;101041.41;5076448;28;20039;-87
2022/11/10 02:31:44;;;;;;;5.45;2.85;;;;;;;7.80;nan;101043.94;5069142;28;20489;-87
2022/11/10 02:34:10;;;;;;;4.40;2.78;;;;;;;7.80;nan;101042.13;5092791;28;20036;-87
2022/11/10 02:36:35;;;;;;;4.13;2.70;;;;;;;7.81;nan;101058.78;5071887;28;20035;-87
2022/11/10 02:39:00;;;;;;;6.28;2.88;;;;;;;7.79;nan;101050.97;5089216;28;20089;-87
2022/11/10 02:41:26;;;;;;;4.88;2.72;;;;;;;7.80;nan;101050.03;5090055;28;20119;-86
2022/11/10 02:43:53;;;;;;;3.97;2.70;;;;;;;7.84;nan;101056.75;5102308;28;20692;-88
2022/11/10 02:46:18;;;;;;;4.47;2.95;;;;;;;7.86;nan;101060.09;5088918;28;20073;-88
2022/11/10 02:48:44;;;;;;;3.90;2.70;;;;;;;7.90;nan;101060.69;5083774;28;20035;-88
2022/11/10 02:51:09;;;;;;;5.55;3.15;;;;;;;7.92;nan;101064.03;5075800;28;20036;-88
2022/11/10 02:53:34;;;;;;;5.32;2.75;;;;;;;7.93;nan;101056.97;5102099;28;20031;-88
2022/11/10 02:55:59;;;;;;;5.05;2.83;;;;;;;7.94;nan;101063.91;5087485;28;20035;-87
2022/11/10 02:58:25;;;;;;;4.00;2.67;;;;;;;7.88;nan;101067.84;5084228;28;20493;-88
2022/11/10 03:00:50;;;;;;;4.93;3.20;;;;;;;7.78;nan;101070.38;5063773;28;20630;-88
2022/11/10 03:03:15;;;;;;;5.25;3.03;;;;;;;7.68;nan;101071.22;5076290;28;20039;-87
2022/11/10 03:05:41;;;;;;;4.05;2.90;;;;;;;7.59;nan;101070.16;5085938;28;20043;-88
2022/11/10 03:08:06;;;;;;;6.15;3.35;;;;;;;7.56;nan;101070.38;5082909;28;20449;-88
2022/11/10 03:10:31;;;;;;;6.43;2.97;;;;;;;7.56;nan;101079.13;5096129;28;20172;-88
2022/11/10 03:13:01;;;;;;;4.50;3.00;;;;;;;7.57;nan;101075.50;5085730;28;20046;-88
2022/11/10 03:15:27;;;;;;;5.47;3.15;;;;;;;7.56;nan;101070.38;5093167;28;20032;-88
2022/11/10 03:17:52;;;;;;;5.35;2.90;;;;;;;7.59;nan;101083.31;5085333;28;20698;-88
2022/11/10 03:20:18;;;;;;;6.60;3.30;;;;;;;7.62;nan;101075.16;5085756;28;20086;-88
2022/11/10 03:22:44;;;;;;;6.60;3.40;;;;;;;7.69;nan;101068.47;5083479;28;20043;-88
2022/11/10 03:25:10;;;;;;;6.18;3.40;;;;;;;7.73;nan;101071.72;5085401;28;20052;-88
2022/11/10 03:27:35;;;;;;;9.27;4.20;;;;;;;7.74;nan;101071.56;5065272;28;20043;-89
2022/11/10 03:30:01;;;;;;;6.53;2.85;;;;;;;7.75;nan;101078.53;5083912;28;20024;-88
2022/11/10 03:32:26;;;;;;;7.10;3.10;;;;;;;7.69;nan;101086.88;5090401;28;20048;-88
2022/11/10 03:34:51;;;;;;;6.55;3.35;;;;;;;7.62;nan;101093.59;5092906;28;20042;-88
2022/11/10 03:37:16;;;;;;;8.20;3.45;;;;;;;7.55;nan;101105.53;5081623;28;20032;-88
2022/11/10 03:39:42;;;;;;;7.03;3.85;;;;;;;7.55;nan;101105.53;5086108;28;20483;-88
2022/11/10 03:42:07;;;;;;;6.78;3.92;;;;;;;7.51;nan;101111.97;5083320;28;20040;-88
2022/11/10 03:44:32;;;;;;;6.03;3.20;;;;;;;7.48;nan;101112.22;5086509;28;20058;-88
2022/11/10 03:46:58;;;;;;;6.35;3.42;;;;;;;7.44;nan;101127.44;5087492;28;20459;-88
2022/11/10 03:49:23;;;;;;;4.75;3.30;;;;;;;7.43;nan;101107.31;5081320;28;20066;-88
2022/11/10 03:51:48;;;;;;;4.45;3.15;;;;;;;7.47;nan;101113.19;5077993;28;20043;-88
2022/11/10 03:54:13;;;;;;;6.65;3.10;;;;;;;7.50;nan;101118.22;5073944;28;20500;-88
2022/11/10 03:56:39;;;;;;;4.00;2.97;;;;;;;7.48;nan;101131.47;5089754;28;20032;-88
2022/11/10 03:59:04;;;;;;;6.10;2.67;;;;;;;7.45;nan;101136.97;5081779;28;20267;-88
2022/11/10 04:01:30;;;;;;;8.07;3.05;;;;;;;7.43;nan;101131.81;5102311;28;20080;-88
2022/11/10 04:03:55;;;;;;;4.13;3.00;;;;;;;7.41;nan;101154.81;5088982;28;20032;-87
2022/11/10 04:09:06;;;;;;;5.30;2.42;;;;;;;7.33;nan;101151.91;5095004;28;20039;-88
2022/11/10 04:17:00;;;;;;;5.25;2.90;;;;;;;7.27;nan;101175.19;5101513;28;20511;-86
2022/11/10 04:19:25;;;;;;;4.28;2.88;;;;;;;7.29;nan;101174.13;5089973;28;20036;-87
2022/11/10 04:21:51;;;;;;;5.80;2.83;;;;;;;7.32;nan;101171.28;5107589;28;20028;-87
2022/11/10 04:24:17;;;;;;;6.32;3.10;;;;;;;7.34;nan;101172.00;5074445;28;20437;-87
2022/11/10 04:26:43;;;;;;;6.53;3.80;;;;;;;7.39;nan;101180.41;5088933;28;20027;-87
2022/11/10 04:29:10;;;;;;;6.53;3.38;;;;;;;7.42;nan;101192.47;5096987;28;20051;-86
2022/11/10 04:31:40;;;;;;;8.75;3.88;;;;;;;7.38;nan;101188.41;5094636;28;20028;-87
2022/11/10 04:34:09;;;;;;;7.80;4.15;;;;;;;7.35;nan;101186.00;5076277;28;20099;-87
2022/11/10 04:36:41;;;;;;;6.22;3.60;;;;;;;7.33;nan;101193.16;5073343;28;20036;-87
2022/11/10 04:39:07;;;;;;;7.97;3.60;;;;;;;7.32;nan;101199.41;5099480;28;20064;-87
2022/11/10 04:41:33;;;;;;;6.43;3.45;;;;;;;7.28;nan;101201.41;5099962;28;20039;-87
2022/11/10 04:43:59;;;;;;;7.22;3.92;;;;;;;7.30;nan;101204.75;5080238;28;20039;-87
2022/11/10 04:46:28;;;;;;;6.35;3.70;;;;;;;7.33;nan;101201.88;5090092;28;20036;-87
2022/11/10 04:48:54;;;;;;;4.85;3.00;;;;;;;7.33;nan;101195.78;5090217;28;20119;-87
2022/11/10 04:51:24;;;;;;;5.18;3.25;;;;;;;7.32;nan;101209.91;5091742;28;20032;-87
2022/11/10 04:53:49;;;;;;;6.88;3.30;;;;;;;7.27;nan;101199.72;5080040;28;20436;-87
2022/11/10 04:56:18;;;;;;;6.93;3.67;;;;;;;7.28;nan;101214.56;5100356;28;20059;-86
2022/11/10 04:58:44;;;;;;;6.72;3.72;;;;;;;7.32;nan;101215.19;5092256;28;20044;-87
2022/11/10 05:01:12;;;;;;;5.55;3.75;;;;;;;7.31;nan;101210.84;5085282;28;20032;-87
2022/11/10 05:03:37;;;;;;;5.32;3.92;;;;;;;7.33;nan;101206.31;5078355;28;20028;-87
2022/11/10 05:06:02;;;;;;;5.57;3.50;;;;;;;7.36;nan;101200.81;5069840;28;20112;-87
2022/11/10 05:08:28;;;;;;;5.32;3.90;;;;;;;7.28;nan;101195.31;5088894;28;20127;-87
2022/11/10 05:10:53;;;;;;;8.10;4.55;;;;;;;7.22;nan;101218.47;5079178;28;20120;-87
2022/11/10 05:13:18;;;;;;;7.70;3.83;;;;;;;7.18;nan;101221.44;5097762;28;20032;-87
2022/11/10 05:15:44;;;;;;;6.15;4.05;;;;;;;7.25;nan;101227.09;5093942;28;20039;-86
2022/11/10 05:18:10;;;;;;;6.90;4.43;;;;;;;7.32;nan;101221.28;5093534;28;20028;-87
2022/11/10 05:20:35;;;;;;;11.27;4.70;;;;;;;7.36;nan;101213.97;5086357;28;20471;-87
2022/11/10 05:25:44;;;;;;;6.90;4.43;;;;;;;7.44;nan;101223.00;5090570;28;20038;-87
2022/11/10 05:28:11;;;;;;;8.52;4.60;;;;;;;7.47;nan;101221.09;5087667;28;20032;-86
2022/11/10 05:30:38;;;;;;;7.57;3.88;;;;;;;7.52;nan;101225.03;5088344;28;20027;-87
2022/11/10 05:33:04;;;;;;;7.45;4.00;;;;;;;7.54;nan;101238.09;5103260;28;20035;-87
2022/11/10 05:35:29;;;;;;;6.80;4.20;;;;;;;7.55;nan;101247.66;5100764;28;20043;-86
2022/11/10 05:37:55;;;;;;;8.18;4.20;;;;;;;7.57;nan;101251.00;5079554;28;20413;-87
2022/11/10 05:40:20;;;;;;;7.20;4.15;;;;;;;7.59;nan;101247.31;5099051;28;20091;-87
2022/11/10 05:42:48;;;;;;;9.65;4.47;;;;;;;7.62;nan;101248.88;5082732;28;20508;-87
2022/11/10 05:45:14;;;;;;;6.80;3.60;;;;;;;7.61;nan;101260.38;5084402;28;20396;-87
2022/11/10 05:47:40;;;;;;;6.88;3.70;;;;;;;7.57;nan;101278.16;5090147;28;20185;-87
2022/11/10 05:50:07;;;;;;;5.45;3.70;;;;;;;7.56;nan;101273.03;5075504;28;20493;-87
2022/11/10 05:52:33;;;;;;;8.52;4.28;;;;;;;7.56;nan;101283.56;5081210;28;20031;-87
2022/11/10 05:54:58;;;;;;;8.45;4.35;;;;;;;7.55;nan;101287.13;5080132;28;20039;-87
2022/11/10 05:57:24;;;;;;;7.60;4.55;;;;;;;7.53;nan;101299.56;5092117;28;20035;-87
2022/11/10 05:59:49;;;;;;;8.35;4.68;;;;;;;7.53;nan;101296.94;5089571;28;20105;-87
2022/11/10 06:02:14;;;;;;;9.32;4.80;;;;;;;7.56;nan;101299.34;5071586;28;20052;-86
2022/11/10 06:04:39;;;;;;;9.43;4.43;;;;;;;7.60;nan;101306.91;5082856;28;20104;-87
2022/11/10 06:07:06;;;;;;;4.13;3.60;;;;;;;7.60;nan;101314.81;5086018;28;20039;-87
2022/11/10 06:09:32;;;;;;;6.38;3.80;;;;;;;7.62;nan;101328.66;5081129;28;20032;-86
2022/11/10 06:11:57;;;;;;;7.35;4.90;;;;;;;7.66;nan;101337.19;5072165;28;20447;-87
2022/11/10 06:14:23;;;;;;;8.20;4.50;;;;;;;7.66;nan;101339.84;5082203;28;20036;-87
2022/11/10 06:16:48;;;;;;;7.88;4.20;;;;;;;7.63;nan;101342.69;5084450;28;20065;-86
2022/11/10 06:19:13;;;;;;;8.30;4.18;;;;;;;7.58;nan;101350.94;5102619;28;20046;-87
2022/11/10 06:21:38;;;;;;;10.95;5.18;;;;;;;7.62;nan;101343.63;5076234;28;20118;-87
2022/11/10 06:24:04;;;;;;;6.68;3.92;;;;;;;7.65;nan;101348.66;5066021;28;20041;-87
2022/11/10 06:26:29;;;;;;;8.63;4.45;;;;;;;7.62;nan;101354.16;5073406;28;20680;-87
2022/11/10 06:28:55;;;;;;;8.82;5.00;;;;;;;7.61;nan;101353.31;5076604;28;20053;-87
2022/11/10 06:31:20;;;;;;;9.23;5.47;;;;;;;7.65;nan;101356.56;5075861;28;20032;-87
2022/11/10 06:33:47;;;;;;;8.80;5.65;;;;;;;7.67;nan;101359.91;5076541;28;20036;-87
2022/11/10 06:36:13;;;;;;;9.30;5.40;;;;;;;7.69;nan;101365.91;5073748;28;20031;-87
2022/11/10 06:38:38;;;;;;;11.45;5.90;;;;;;;7.72;nan;101370.94;5085018;28;20031;-86
2022/11/10 06:41:04;;;;;;;9.40;5.10;;;;;;;7.75;nan;101385.72;5076740;28;20047;-87
2022/11/10 06:43:29;;;;;;;9.57;5.35;;;;;;;7.76;nan;101384.75;5078470;28;20028;-87
2022/11/10 06:45:56;;;;;;;12.40;6.15;;;;;;;7.79;nan;101392.41;5075964;28;20039;-87
2022/11/10 06:48:21;;;;;;;10.55;5.78;;;;;;;7.80;nan;101402.84;5092547;28;20040;-87
2022/11/10 06:50:46;;;;;;;9.75;5.75;;;;;;;7.84;nan;101406.94;5092368;28;20581;-86
2022/11/10 06:53:12;;;;;;;7.43;4.63;;;;;;;7.83;nan;101415.78;5086705;28;20055;-87
2022/11/10 06:55:38;;;;;;;8.77;4.65;;;;;;;7.81;nan;101415.03;5072790;28;20089;-87
2022/11/10 06:58:03;;;;;;;8.15;4.70;;;;;;;7.82;nan;101431.69;5076118;28;20028;-87
2022/11/10 07:00:29;;;;;;;6.45;4.13;;;;;;;7.79;nan;101440.63;5093922;28;20024;-86
2022/11/10 07:03:03;;;;;;;9.20;5.07;;;;;;;7.79;nan;101442.44;5089595;28;20050;-87
2022/11/10 07:05:29;;;;;;;8.48;5.40;;;;;;;7.80;nan;101455.50;5092685;28;20039;-86
2022/11/10 07:07:54;;;;;;;8.52;4.88;;;;;;;7.81;nan;101462.44;5069527;28;20029;-87
2022/11/10 07:10:20;;;;;;;10.43;5.30;;;;;;;7.84;nan;101456.97;5090106;28;20115;-87
2022/11/10 07:12:45;;;;;;;10.77;6.00;;;;;;;7.88;nan;101461.03;5101799;28;20029;-87
2022/11/10 07:15:10;;;;;;;7.93;4.82;;;;;;;7.92;nan;101468.75;5102236;28;20445;-87
2022/11/10 07:17:39;;;;;;;14.30;6.22;;;;;;;7.96;nan;101476.31;5084563;28;20020;-86
2022/11/10 07:20:06;;;;;;;11.25;6.45;;;;;;;8.02;nan;101480.28;5084418;28;20077;-87
2022/11/10 07:22:31;;;;;;;10.35;5.85;;;;;;;8.05;nan;101474.78;5092140;28;20075;-86
2022/11/10 07:24:56;;;;;;;11.50;5.70;;;;;;;8.11;nan;101478.78;5075516;28;20036;-87
2022/11/10 07:27:22;;;;;;;13.23;6.75;;;;;;;8.19;nan;101481.69;5075254;28;20036;-87
2022/11/10 07:29:47;;;;;;;11.18;5.90;;;;;;;8.23;nan;101476.06;5079692;28;20370;-87
2022/11/10 07:32:13;;;;;;;11.85;6.22;;;;;;;8.30;nan;101477.28;5095260;28;20039;-87
2022/11/10 07:34:39;;;;;;;10.75;6.43;;;;;;;8.38;nan;101478.53;5074023;28;20401;-87
2022/11/10 07:37:04;;;;;;;10.55;6.32;;;;;;;8.43;nan;101482.53;5091295;28;20032;-87
2022/11/10 07:39:30;;;;;;;10.73;6.45;;;;;;;8.48;nan;101490.91;5091997;28;20039;-87
2022/11/10 07:41:56;;;;;;;10.75;6.63;;;;;;;8.53;nan;101493.22;5079674;28;20036;-87
2022/11/10 07:44:22;;;;;;;11.85;6.53;;;;;;;8.55;nan;101490.47;5076116;28;20505;-87
2022/11/10 07:46:47;;;;;;;10.32;5.97;;;;;;;8.58;nan;101495.50;5079582;28;20032;-87
2022/11/10 07:49:12;;;;;;;11.57;6.57;;;;;;;8.62;nan;101512.78;5075319;28;20044;-87
2022/11/10 07:51:39;;;;;;;9.73;5.47;;;;;;;8.65;nan;101516.03;5090705;28;20135;-87
2022/11/10 07:54:04;;;;;;;12.77;6.43;;;;;;;8.66;nan;101517.72;5089952;28;20115;-88
2022/11/10 07:56:29;;;;;;;9.80;5.88;;;;;;;8.69;nan;101522.75;5071973;28;20044;-87
2022/11/10 07:58:54;;;;;;;10.25;4.90;;;;;;;8.74;nan;101526.84;5072411;28;20032;-87
2022/11/10 08:01:20;;;;;;;10.90;5.45;;;;;;;8.80;nan;101534.31;5091323;28;20042;-86
2022/11/10 08:03:45;;;;;;;8.73;5.18;;;;;;;8.85;nan;101533.00;5098009;28;20276;-87
2022/11/10 08:06:10;;;;;;;8.27;5.00;;;;;;;8.92;nan;101536.00;5089584;28;20051;-87
2022/11/10 08:08:35;;;;;;;10.80;5.30;;;;;;;9.00;nan;101541.53;5072757;28;20032;-87
2022/11/10 08:11:10;;;;;;;12.40;5.30;;;;;;;9.07;nan;101544.56;5075170;28;20031;-87
2022/11/10 08:13:35;;;;;;;9.73;5.22;;;;;;;9.14;nan;101537.84;5067106;28;20386;-87
2022/11/10 08:16:01;;;;;;;8.88;5.00;;;;;;;9.24;nan;101548.53;5063152;28;20038;-87
2022/11/10 08:18:27;;;;;;;12.25;5.25;;;;;;;9.33;nan;101555.75;5053016;28;20067;-87
2022/11/10 08:20:52;;;;;;;10.90;5.78;;;;;;;9.42;nan;101556.84;5050955;28;20053;-88
2022/11/10 08:23:18;;;;;;;9.50;4.95;;;;;;;9.48;nan;101549.28;5052302;28;20043;-88
2022/11/10 08:25:45;;;;;;;7.55;4.72;;;;;;;9.60;nan;101557.22;5054851;28;20036;-87
2022/11/10 08:28:13;;;;;;;9.05;4.88;;;;;;;9.70;nan;101561.66;5059998;28;20048;-87
2022/11/10 08:30:44;;;;;;;10.80;5.00;;;;;;;9.77;nan;101560.22;5052819;28;20115;-87
2022/11/10 08:33:13;;;;;;;11.27;5.63;;;;;;;9.85;nan;101559.59;5051518;28;20554;-88
2022/11/10 08:35:44;;;;;;;11.07;5.65;;;;;;;9.93;nan;101573.03;5077455;28;20560;-87
2022/11/10 08:38:12;;;;;;;12.35;4.88;;;;;;;9.97;nan;101563.91;5069720;28;20028;-88
2022/11/10 08:40:38;;;;;;;10.00;4.75;;;;;;;10.04;nan;101574.84;5055445;28;20081;-88
2022/11/10 08:43:07;;;;;;;8.05;4.30;;;;;;;10.10;nan;101573.50;5055686;28;20043;-87
2022/11/10 08:45:34;;;;;;;9.98;4.50;;;;;;;10.20;nan;101582.34;5059474;28;20051;-88
2022/11/10 08:48:02;;;;;;;11.30;4.13;;;;;;;10.26;nan;101579.22;5050884;28;20393;-88
2022/11/10 08:50:28;;;;;;;7.10;4.43;;;;;;;10.32;nan;101585.84;5058558;28;20044;-88
2022/11/10 08:52:54;;;;;;;11.82;4.70;;;;;;;10.35;nan;101583.81;5048117;28;20033;-87
2022/11/10 08:55:20;;;;;;;13.55;5.05;;;;;;;10.42;nan;101589.44;5042697;28;20028;-88
2022/11/10 08:57:46;;;;;;;8.80;4.20;;;;;;;10.47;nan;101592.56;5071457;28;20028;-87
2022/11/10 09:00:12;;;;;;;8.98;4.28;;;;;;;10.51;nan;101595.75;5070795;28;20454;-88
2022/11/10 09:02:38;;;;;;;9.25;3.63;;;;;;;10.55;nan;101592.75;5048415;28;20551;-88
2022/11/10 09:05:03;;;;;;;8.25;4.13;;;;;;;10.62;nan;101599.22;5046622;28;20028;-88
2022/11/10 09:07:30;;;;;;;7.30;3.72;;;;;;;10.68;nan;101603.19;5052671;28;20330;-87
2022/11/10 09:09:55;;;;;;;9.63;4.25;;;;;;;10.71;nan;101600.28;5078002;28;20139;-87
2022/11/10 09:12:20;;;;;;;8.60;3.58;;;;;;;10.75;nan;101612.28;5049792;28;20565;-89
2022/11/10 09:14:45;;;;;;;9.05;4.07;;;;;;;10.82;nan;101609.97;5059730;28;20116;-88
2022/11/10 09:17:11;;;;;;;8.95;3.83;;;;;;;10.90;nan;101609.34;5040037;28;20120;-88
2022/11/10 09:19:36;;;;;;;7.13;3.67;;;;;;;10.90;nan;101615.47;5050010;28;20563;-88
2022/11/10 09:22:01;;;;;;;7.53;3.47;;;;;;;10.93;nan;101617.03;5050894;28;20041;-87
2022/11/10 09:24:27;;;;;;;10.20;3.60;;;;;;;10.98;nan;101626.25;5068194;28;20032;-88
2022/11/10 09:26:52;;;;;;;7.90;3.72;;;;;;;11.04;nan;101628.41;5068273;28;20033;-88
2022/11/10 09:29:17;;;;;;;7.47;4.00;;;;;;;11.13;nan;101642.69;5050535;28;20033;-88
2022/11/10 09:31:44;;;;;;;9.15;3.83;;;;;;;11.18;nan;101644.94;5055146;28;20374;-88
2022/11/10 09:34:09;;;;;;;12.15;4.30;;;;;;;11.20;nan;101645.63;5071680;28;20424;-87
2022/11/10 09:36:35;;;;;;;7.75;3.70;;;;;;;11.27;nan;101654.75;5050718;28;20082;-88
2022/11/10 09:39:00;;;;;;;9.50;3.50;;;;;;;11.29;nan;101650.16;5061755;28;20032;-89
2022/11/10 09:41:28;;;;;;;7.57;3.60;;;;;;;11.30;nan;101653.66;5071641;28;20060;-89
2022/11/10 09:44:06;;;;;;;12.15;4.13;;;;;;;11.36;nan;101653.16;5037784;28;20036;-87
2022/11/10 09:46:38;;;;;;;7.75;3.78;;;;;;;11.41;nan;101654.41;5049454;28;20025;-88
2022/11/10 09:49:32;;;;;;;9.45;3.72;;;;;;;11.46;nan;101651.38;5067676;28;20398;-88
2022/11/10 09:51:58;;;;;;;11.23;4.07;;;;;;;11.50;nan;101652.81;5049515;28;20175;-87
2022/11/10 09:54:39;;;;;;;8.48;3.33;;;;;;;11.55;nan;101655.91;5060638;28;20035;-88
2022/11/10 09:57:06;;;;;;;7.88;3.58;;;;;;;11.60;nan;101659.00;5058020;28;20378;-88
2022/11/10 09:59:33;;;;;;;10.77;3.45;;;;;;;11.65;nan;101658.59;5052882;28;20098;-87
2022/11/10 10:02:03;;;;;;;8.30;3.20;;;;;;;11.72;nan;101661.59;5071875;28;20041;-87
2022/11/10 10:05:12;;;;;;;8.25;3.58;;;;;;;11.73;nan;101653.50;5082685;28;20029;-87
2022/11/10 10:07:45;;;;;;;7.68;2.85;;;;;;;11.84;nan;101656.06;5067572;28;20166;-87
2022/11/10 10:10:38;;;;;;;10.30;3.90;;;;;;;11.89;nan;101658.34;5075686;28;20037;-88
2022/11/10 10:13:18;;;;;;;7.15;3.25;;;;;;;11.95;nan;101646.38;5055416;28;20039;-87
2022/11/10 10:16:17;;;;;;;9.07;3.17;;;;;;;12.04;nan;101659.69;5056193;28;20040;-87
2022/11/10 10:19:01;;;;;;;8.82;3.17;;;;;;;12.09;nan;101654.81;5055157;28;20048;-86
2022/11/10 10:21:32;;;;;;;9.52;3.50;;;;;;;12.17;nan;101663.91;5054178;28;20044;-87
2022/11/10 10:24:00;;;;;;;9.38;2.95;;;;;;;12.17;nan;101662.09;5054663;28;20579;-86
2022/11/10 10:26:32;;;;;;;10.32;3.30;;;;;;;12.15;nan;101663.19;5062389;28;20363;-87
2022/11/10 10:29:05;;;;;;;6.38;2.97;;;;;;;12.19;nan;101660.16;5062701;28;20063;-87
2022/11/10 10:31:38;;;;;;;8.85;3.38;;;;;;;12.25;nan;101664.94;5073560;28;20542;-86
2022/11/10 10:34:11;;;;;;;5.65;3.00;;;;;;;12.30;nan;101654.75;5071940;28;20063;-88
2022/11/10 10:36:37;;;;;;;9.18;3.35;;;;;;;12.37;nan;101662.16;5053256;28;20115;-87
2022/11/10 10:39:11;;;;;;;6.15;2.83;;;;;;;12.51;nan;101651.16;5078215;28;20094;-85
2022/11/10 10:41:37;;;;;;;6.60;2.90;;;;;;;12.64;nan;101656.22;5054368;28;20097;-86
2022/11/10 10:44:13;;;;;;;9.20;3.00;;;;;;;12.73;nan;101653.56;5036977;28;20558;-86
2022/11/10 10:46:54;;;;;;;7.65;3.22;;;;;;;12.79;nan;101652.16;5057626;28;20148;-87
2022/11/10 10:49:27;;;;;;;10.20;3.40;;;;;;;12.85;nan;101659.59;5091119;28;20283;-87
2022/11/10 10:52:04;;;;;;;8.13;3.00;;;;;;;12.85;nan;101658.75;5045156;28;20032;-87
2022/11/10 10:54:35;;;;;;;5.95;2.40;;;;;;;12.85;nan;101658.75;5080086;28;20267;-86
2022/11/10 10:57:28;;;;;;;8.80;2.70;;;;;;;12.84;nan;101662.38;5059940;28;20437;-87
2022/11/10 11:00:19;;;;;;;7.18;2.78;;;;;;;12.81;nan;101660.84;5060524;28;20404;-86
2022/11/10 11:03:03;;;;;;;6.00;2.45;;;;;;;12.90;nan;101662.66;5038931;28;20106;-86
2022/11/10 11:05:29;;;;;;;5.75;2.17;;;;;;;13.06;nan;101664.78;5053723;28;20039;-86
2022/11/10 11:07:56;;;;;;;5.82;2.40;;;;;;;13.22;nan;101661.53;5062947;28;20025;-87
2022/11/10 11:10:24;;;;;;;8.35;2.60;;;;;;;13.36;nan;101660.28;5052715;28;20068;-84
2022/11/10 11:12:49;;;;;;;7.38;2.40;;;;;;;13.52;nan;101654.41;5062308;28;20024;-84
2022/11/10 11:15:20;;;;;;;7.93;2.42;;;;;;;13.71;nan;101650.84;5080167;28;20115;-84
2022/11/10 11:17:57;;;;;;;6.05;2.50;;;;;;;13.88;nan;101658.06;5054472;28;20463;-85
2022/11/10 11:20:47;;;;;;;8.38;2.38;;;;;;;14.00;nan;101650.75;5061299;28;20036;-84
2022/11/10 11:23:31;;;;;;;;;;;;;;;14.00;nan;101656.88;5063821;28;20024;-85
2022/11/10 11:26:14;;;;;;;7.03;2.55;;;;;;;14.05;nan;101652.97;5070471;28;20285;-84
2022/11/10 11:28:52;;;;;;;6.22;1.90;;;;;;;14.18;nan;101664.94;5069811;28;20060;-85
2022/11/10 11:31:44;;;;;;;5.28;2.33;;;;;;;14.33;nan;101659.97;5070271;28;20028;-84
2022/11/10 11:34:12;;;;;;;;;;;;;;;14.42;nan;101664.41;5060521;28;20043;-85
2022/11/10 11:37:04;;;;;;;6.88;2.30;;;;;;;14.40;nan;101657.56;5066863;28;19935;-84
2022/11/10 11:39:55;;;;;;;7.75;2.45;;;;;;;14.29;nan;101663.06;5078833;28;20383;-84
2022/11/10 11:42:42;;;;;;;4.13;1.65;;;;;;;14.18;nan;101667.59;5060726;28;20032;-84
2022/11/10 11:45:31;;;;;;;9.35;2.65;;;;;;;14.02;nan;101660.25;5061877;28;20036;-84
2022/11/10 11:48:22;;;;;;;9.30;2.45;;;;;;;13.91;nan;101667.56;5048773;28;20051;-84
2022/11/10 11:50:51;;;;;;;6.35;2.30;;;;;;;13.86;nan;101668.00;5062991;28;20521;-85
2022/11/10 11:53:42;;;;;;;7.05;2.55;;;;;;;14.13;nan;101663.69;5064461;28;20520;-85
2022/11/10 11:56:25;;;;;;;8.43;2.40;;;;;;;14.07;nan;101673.09;5069940;28;20040;-84
2022/11/10 11:59:07;;;;;;;10.23;2.22;;;;;;;14.13;nan;101666.34;5058687;28;20358;-85
2022/11/10 12:02:10;;;;;;;7.25;2.30;;;;;;;14.29;nan;101663.06;5063566;28;20033;-85
2022/11/10 12:04:38;;;;;;;5.65;1.98;;;;;;;14.36;nan;101667.63;5069676;28;20072;-84
2022/11/10 12:07:22;;;;;;;4.60;1.60;;;;;;;14.45;nan;101671.25;5059962;28;20127;-84